Time;durP1;ratioP1;P1;durP2;ratioP2;P2;SDS_P1;SDS_P2;PMS_P1;PMS_P2;Temp;Humidity;BMP_temperature;BMP_pressure;BME280_temperature;BME280_humidity;BME280_pressure;Samples;Min_cycle;Max_cycle;Signal;HPM_P1;HPM_P2
2024/03/17 00:00:05;;;;;;;31.08;19.83;;;11.40;99.90;;;;;;6308647;22;20017;-66
2024/03/17 00:02:31;;;;;;;30.63;20.27;;;11.40;99.90;;;;;;6309241;22;20329;-66
2024/03/17 00:04:57;;;;;;;29.63;19.30;;;11.40;99.90;;;;;;6309118;22;19999;-68
2024/03/17 00:07:23;;;;;;;29.15;18.75;;;11.30;99.90;;;;;;6309067;22;20007;-66
2024/03/17 00:13:29;;;;;;;27.50;20.33;;;11.30;99.90;;;;;;6309060;22;20137;-66
2024/03/17 00:17:00;;;;;;;29.50;19.45;;;11.30;99.90;;;;;;6307689;22;19999;-67
2024/03/17 00:24:02;;;;;;;;;;;;;;;;;;;;;
2024/03/17 00:30:12;;;;;;;22.75;17.40;;;11.20;99.90;;;;;;6065825;23;20011;-66
2024/03/17 00:36:23;;;;;;;26.50;16.55;;;11.10;99.90;;;;;;6044650;23;20041;-66
2024/03/17 00:38:51;;;;;;;21.70;16.80;;;11.10;99.90;;;;;;6279075;22;20022;-66
2024/03/17 00:41:19;;;;;;;21.00;15.73;;;11.20;99.90;;;;;;6280678;22;20412;-66
2024/03/17 00:43:45;;;;;;;24.63;15.88;;;11.10;99.90;;;;;;6308230;22;20011;-66
2024/03/17 00:46:11;;;;;;;21.90;16.52;;;11.10;99.90;;;;;;6307851;22;20443;-66
2024/03/17 00:48:37;;;;;;;25.40;16.70;;;11.10;99.90;;;;;;6307936;22;20015;-66
2024/03/17 00:51:04;;;;;;;21.85;16.48;;;11.10;99.90;;;;;;6307839;22;20479;-66
2024/03/17 00:53:30;;;;;;;20.63;15.15;;;11.10;99.90;;;;;;6307883;22;20025;-66
2024/03/17 00:56:00;;;;;;;21.27;16.25;;;11.10;99.90;;;;;;6308349;22;20325;-66
2024/03/17 00:58:25;;;;;;;24.08;17.30;;;11.00;99.90;;;;;;6307839;22;20489;-68
2024/03/17 01:00:51;;;;;;;21.08;16.42;;;11.00;99.90;;;;;;6307590;22;20026;-67
2024/03/17 01:03:17;;;;;;;19.75;16.10;;;11.00;99.90;;;;;;6306234;22;20017;-66
2024/03/17 01:05:44;;;;;;;22.38;17.98;;;11.00;99.90;;;;;;6307728;22;20513;-67
2024/03/17 01:08:18;;;;;;;22.38;16.30;;;11.00;99.90;;;;;;6307762;22;20421;-68
2024/03/17 01:10:45;;;;;;;25.05;17.77;;;11.00;99.90;;;;;;6307481;22;19999;-65
2024/03/17 01:13:11;;;;;;;21.50;16.60;;;11.00;99.90;;;;;;6307111;22;20048;-66
2024/03/17 01:15:37;;;;;;;24.83;17.85;;;11.00;99.90;;;;;;6307437;22;20098;-66
2024/03/17 01:18:06;;;;;;;25.65;17.63;;;10.90;99.90;;;;;;6307596;22;20043;-66
2024/03/17 01:20:34;;;;;;;22.17;17.48;;;10.90;99.90;;;;;;6307063;22;20011;-65
2024/03/17 01:23:00;;;;;;;32.25;17.77;;;10.90;99.90;;;;;;6307756;22;20091;-67
2024/03/17 01:25:26;;;;;;;32.40;18.80;;;10.90;99.90;;;;;;6307409;22;20031;-66
2024/03/17 01:27:52;;;;;;;32.15;18.00;;;10.90;99.90;;;;;;6306938;22;20003;-66
2024/03/17 01:30:19;;;;;;;29.48;17.67;;;10.90;99.90;;;;;;6307413;22;20010;-67
2024/03/17 01:32:45;;;;;;;23.73;17.05;;;10.80;99.90;;;;;;6307415;22;20422;-66
2024/03/17 01:35:11;;;;;;;27.50;18.38;;;10.80;99.90;;;;;;6307539;22;19999;-66
2024/03/17 01:37:38;;;;;;;26.45;17.50;;;10.70;99.90;;;;;;6307861;22;20333;-66
2024/03/17 01:40:07;;;;;;;30.17;19.05;;;10.60;99.90;;;;;;6308227;22;20007;-67
2024/03/17 01:42:34;;;;;;;28.45;19.65;;;10.60;99.90;;;;;;6308455;22;20371;-66
2024/03/17 01:45:00;;;;;;;28.33;18.75;;;10.60;99.90;;;;;;6307593;22;20011;-66
2024/03/17 01:47:26;;;;;;;24.77;19.13;;;10.50;99.90;;;;;;6307579;22;20344;-66
2024/03/17 01:57:03;;;;;;;;;;;;;;;;;;;;;
2024/03/17 02:00:31;;;;;;;36.15;17.73;;;10.50;99.90;;;;;;6061136;23;20094;-66
2024/03/17 02:03:52;;;;;;;38.95;17.90;;;10.40;99.90;;;;;;5902120;24;20487;-66
2024/03/17 02:10:19;;;;;;;30.20;17.48;;;10.40;99.90;;;;;;5870486;24;20017;-67
2024/03/17 02:16:18;;;;;;;24.95;16.52;;;10.30;99.90;;;;;;5868117;23;20145;-66
2024/03/17 02:18:44;;;;;;;22.13;15.48;;;10.30;99.90;;;;;;6007444;23;20412;-66
2024/03/17 02:21:10;;;;;;;21.88;15.75;;;10.30;99.90;;;;;;6112052;23;20052;-65
2024/03/17 02:23:36;;;;;;;20.20;14.60;;;10.20;99.90;;;;;;6272010;22;20082;-66
2024/03/17 02:26:03;;;;;;;23.67;15.25;;;10.20;99.90;;;;;;6306453;22;19995;-66
2024/03/17 02:28:29;;;;;;;18.83;15.63;;;10.10;99.90;;;;;;6306649;22;20368;-66
2024/03/17 02:30:55;;;;;;;22.50;15.57;;;10.10;99.90;;;;;;6306821;22;20002;-66
2024/03/17 02:33:22;;;;;;;23.45;14.82;;;10.00;99.90;;;;;;6306942;22;20003;-66
2024/03/17 02:35:48;;;;;;;22.88;15.48;;;10.00;99.90;;;;;;6306477;22;20006;-66
2024/03/17 02:39:33;;;;;;;22.17;15.40;;;10.00;99.90;;;;;;6306603;22;20003;-66
2024/03/17 02:41:06;;;;;;;23.08;16.23;;;10.00;99.90;;;;;;6306004;22;20019;-66
2024/03/17 02:43:31;;;;;;;23.00;16.42;;;10.00;99.90;;;;;;6306831;22;20548;-66
2024/03/17 02:45:58;;;;;;;24.33;15.17;;;9.90;99.90;;;;;;6306477;22;20013;-67
2024/03/17 02:48:24;;;;;;;21.75;15.80;;;9.90;99.90;;;;;;6307121;22;20505;-66
2024/03/17 02:50:51;;;;;;;24.70;15.47;;;9.90;99.90;;;;;;6306533;22;19999;-67
2024/03/17 02:53:16;;;;;;;21.73;16.00;;;9.90;99.90;;;;;;6306598;22;20003;-66
2024/03/17 02:55:42;;;;;;;20.85;15.90;;;9.90;99.90;;;;;;6306685;22;20084;-66
2024/03/17 02:58:08;;;;;;;24.90;15.70;;;9.90;99.90;;;;;;6306205;22;20022;-66
2024/03/17 03:00:35;;;;;;;19.57;15.37;;;9.80;99.90;;;;;;6306651;22;20080;-66
2024/03/17 03:03:01;;;;;;;19.97;14.73;;;9.80;99.90;;;;;;6306705;22;20003;-66
2024/03/17 03:05:26;;;;;;;25.65;15.52;;;9.80;99.90;;;;;;6306600;22;20000;-66
2024/03/17 03:07:52;;;;;;;19.63;15.38;;;9.80;99.90;;;;;;6306625;22;20326;-66
2024/03/17 03:10:19;;;;;;;24.33;16.47;;;9.80;99.90;;;;;;6306610;22;19999;-66
2024/03/17 03:12:45;;;;;;;21.23;15.77;;;9.80;99.90;;;;;;6279320;22;20007;-66
2024/03/17 03:15:10;;;;;;;21.40;16.47;;;9.70;99.90;;;;;;6306288;22;20325;-66
2024/03/17 03:17:36;;;;;;;24.03;17.27;;;9.70;99.90;;;;;;6306523;22;20003;-66
2024/03/17 03:20:03;;;;;;;25.53;17.23;;;9.70;99.90;;;;;;6305946;22;20027;-67
2024/03/17 03:22:29;;;;;;;26.27;16.40;;;9.70;99.90;;;;;;6307319;22;19999;-66
2024/03/17 03:24:55;;;;;;;24.53;17.13;;;9.70;99.90;;;;;;6307070;22;20464;-66
2024/03/17 03:27:20;;;;;;;19.70;15.67;;;9.70;99.90;;;;;;6307505;22;20440;-66
2024/03/17 03:29:47;;;;;;;23.97;16.83;;;9.70;99.90;;;;;;6307192;22;20056;-66
2024/03/17 03:32:52;;;;;;;23.53;16.07;;;9.70;99.90;;;;;;6307016;22;20121;-66
2024/03/17 03:46:23;;;;;;;24.20;15.97;;;9.50;99.90;;;;;;6146138;23;20009;-67
2024/03/17 03:52:22;;;;;;;29.07;17.37;;;9.50;99.90;;;;;;6003686;23;20362;-67
2024/03/17 03:55:12;;;;;;;24.10;16.30;;;9.50;99.90;;;;;;5977641;24;20012;-67
2024/03/17 03:57:38;;;;;;;23.10;16.17;;;9.50;99.90;;;;;;5981950;23;20016;-67
2024/03/17 04:00:12;;;;;;;25.33;17.57;;;9.40;99.90;;;;;;6064850;23;20074;-65
2024/03/17 04:02:43;;;;;;;24.97;18.07;;;9.40;99.90;;;;;;6218914;22;20416;-67
2024/03/17 04:05:10;;;;;;;24.30;17.53;;;9.40;99.90;;;;;;6306331;22;20333;-66
2024/03/17 04:07:37;;;;;;;20.63;16.07;;;9.40;99.90;;;;;;6306493;22;20003;-66
2024/03/17 04:10:04;;;;;;;23.57;17.13;;;9.50;99.90;;;;;;6306649;22;20015;-67
2024/03/17 04:12:30;;;;;;;24.83;17.27;;;9.40;99.90;;;;;;6306657;22;20007;-66
2024/03/17 04:14:57;;;;;;;25.07;18.00;;;9.40;99.90;;;;;;6308130;22;20026;-67
2024/03/17 04:17:23;;;;;;;27.47;17.37;;;9.40;99.90;;;;;;6308579;22;19995;-66
2024/03/17 04:19:50;;;;;;;23.60;16.97;;;9.40;99.90;;;;;;6307400;22;20338;-66
2024/03/17 04:22:16;;;;;;;23.93;16.97;;;9.30;99.90;;;;;;6307891;22;20417;-66
2024/03/17 04:24:43;;;;;;;20.47;15.80;;;9.30;99.90;;;;;;6307896;22;20570;-66
2024/03/17 04:27:09;;;;;;;23.07;16.77;;;9.30;99.90;;;;;;6308239;22;19995;-66
2024/03/17 04:29:35;;;;;;;28.83;17.00;;;9.30;99.90;;;;;;6308215;22;20061;-67
2024/03/17 04:32:01;;;;;;;29.07;16.80;;;9.30;99.90;;;;;;6307744;22;19996;-67
2024/03/17 04:34:27;;;;;;;20.53;16.53;;;9.30;99.90;;;;;;6306289;22;20032;-71
2024/03/17 04:36:53;;;;;;;22.83;15.70;;;9.30;99.90;;;;;;6307585;22;20125;-67
2024/03/17 04:39:19;;;;;;;21.93;16.80;;;9.30;99.90;;;;;;6307419;22;20042;-65
2024/03/17 04:41:47;;;;;;;21.30;16.07;;;9.30;99.90;;;;;;6307708;22;19995;-65
2024/03/17 04:44:14;;;;;;;20.80;16.87;;;9.30;99.90;;;;;;6307841;22;20095;-65
2024/03/17 04:46:40;;;;;;;22.67;17.20;;;9.30;99.90;;;;;;6306027;22;20070;-65
2024/03/17 04:49:05;;;;;;;23.83;15.60;;;9.30;99.90;;;;;;6307024;22;20003;-66
2024/03/17 04:51:33;;;;;;;23.70;16.40;;;9.30;99.90;;;;;;6307448;22;20082;-66
2024/03/17 04:53:59;;;;;;;22.13;16.23;;;9.30;99.90;;;;;;6307404;22;20007;-66
2024/03/17 04:56:25;;;;;;;23.03;16.67;;;9.30;99.90;;;;;;6307263;22;19999;-66
2024/03/17 04:58:51;;;;;;;26.87;16.67;;;9.30;99.90;;;;;;6307793;22;20050;-66
2024/03/17 05:01:17;;;;;;;25.43;17.47;;;9.30;99.90;;;;;;6308139;22;20479;-68
2024/03/17 05:03:42;;;;;;;22.20;16.57;;;9.30;99.90;;;;;;6308017;22;20034;-66
2024/03/17 05:06:08;;;;;;;28.17;16.70;;;9.30;99.90;;;;;;6308171;22;20477;-66
2024/03/17 05:08:34;;;;;;;22.17;17.63;;;9.30;99.90;;;;;;6308130;22;20057;-66
2024/03/17 05:11:04;;;;;;;26.03;17.27;;;9.20;99.90;;;;;;6308581;22;20497;-67
2024/03/17 05:13:51;;;;;;;25.47;17.77;;;9.20;99.90;;;;;;6308540;22;20014;-66
2024/03/17 05:20:13;;;;;;;25.33;17.80;;;9.20;99.90;;;;;;6306133;22;20026;-66
2024/03/17 05:33:26;;;;;;;19.97;15.90;;;9.10;99.90;;;;;;6308159;22;20005;-66
2024/03/17 05:35:54;;;;;;;18.77;15.63;;;9.00;99.90;;;;;;6306559;22;19999;-66
2024/03/17 05:41:46;;;;;;;;;;;;;;;;;;;;;
2024/03/17 05:44:12;;;;;;;22.43;16.60;;;9.10;99.90;;;;;;6307702;22;20481;-66
2024/03/17 05:46:38;;;;;;;21.07;14.93;;;9.10;99.90;;;;;;6307573;22;20034;-66
2024/03/17 05:49:04;;;;;;;22.77;16.07;;;9.10;99.90;;;;;;6307107;22;20030;-65
2024/03/17 05:51:30;;;;;;;21.17;15.87;;;9.10;99.90;;;;;;6307135;22;20054;-66
2024/03/17 05:53:55;;;;;;;17.10;13.93;;;9.10;99.90;;;;;;6279801;22;20014;-66
2024/03/17 05:56:22;;;;;;;18.33;14.10;;;9.20;99.90;;;;;;6307236;22;20080;-66
2024/03/17 05:58:48;;;;;;;15.77;12.53;;;9.20;99.90;;;;;;6307334;22;20314;-65
2024/03/17 06:01:14;;;;;;;17.40;13.53;;;9.30;99.90;;;;;;6306970;22;20060;-66
2024/03/17 06:03:41;;;;;;;20.77;13.73;;;9.30;99.90;;;;;;6307321;22;19996;-66
2024/03/17 06:06:09;;;;;;;18.47;13.33;;;9.40;99.90;;;;;;6307210;22;20425;-67
2024/03/17 06:08:35;;;;;;;17.40;13.10;;;9.50;99.90;;;;;;6307204;22;20421;-67
2024/03/17 06:11:02;;;;;;;21.63;11.43;;;9.50;99.90;;;;;;6306635;22;20004;-69
2024/03/17 06:13:28;;;;;;;20.63;12.07;;;9.50;99.90;;;;;;6307718;22;19999;-66
2024/03/17 06:15:54;;;;;;;19.40;11.17;;;9.60;99.90;;;;;;6307340;22;20061;-66
2024/03/17 06:18:20;;;;;;;15.37;11.77;;;9.70;99.90;;;;;;6307187;22;20011;-67
2024/03/17 06:20:47;;;;;;;16.73;13.47;;;9.70;99.90;;;;;;6307079;22;20018;-66
2024/03/17 06:23:14;;;;;;;18.17;14.20;;;9.80;99.90;;;;;;6305707;22;20003;-66
2024/03/17 06:25:47;;;;;;;19.13;14.27;;;9.80;99.90;;;;;;6306852;22;20007;-67
2024/03/17 06:28:15;;;;;;;20.33;14.43;;;9.90;99.90;;;;;;6306036;22;20492;-69
2024/03/17 06:30:46;;;;;;;23.07;14.73;;;9.90;99.90;;;;;;6306479;22;19995;-66
2024/03/17 06:33:13;;;;;;;19.27;14.47;;;9.90;99.90;;;;;;6306423;22;20022;-66
2024/03/17 06:35:40;;;;;;;23.10;15.93;;;10.00;99.90;;;;;;6279236;22;20019;-66
2024/03/17 06:38:09;;;;;;;22.37;17.43;;;10.00;99.90;;;;;;6307111;22;20295;-66
2024/03/17 06:40:36;;;;;;;20.70;15.87;;;10.00;99.90;;;;;;6306758;22;20087;-66
2024/03/17 06:43:02;;;;;;;25.47;16.07;;;10.00;99.90;;;;;;6306656;22;20069;-66
2024/03/17 06:45:28;;;;;;;19.58;15.88;;;10.00;99.90;;;;;;6306612;22;20372;-66
2024/03/17 06:47:55;;;;;;;17.77;15.65;;;10.20;99.90;;;;;;6307282;22;19996;-67
2024/03/17 06:50:21;;;;;;;20.92;14.82;;;10.20;99.90;;;;;;6307131;22;20007;-66
2024/03/17 06:52:47;;;;;;;19.08;14.60;;;10.30;99.90;;;;;;6307314;22;20020;-66
2024/03/17 06:55:13;;;;;;;21.10;14.65;;;10.30;99.90;;;;;;6307047;22;20003;-66
2024/03/17 07:01:09;;;;;;;17.95;14.45;;;10.40;99.90;;;;;;6182996;23;20093;-66
2024/03/17 07:03:35;;;;;;;17.17;13.63;;;10.50;99.90;;;;;;6293457;22;20007;-66
2024/03/17 07:06:50;;;;;;;20.87;13.73;;;10.50;99.90;;;;;;6306436;22;20023;-66
2024/03/17 07:13:00;;;;;;;19.30;14.00;;;10.50;99.90;;;;;;6178165;23;20020;-66
2024/03/17 07:16:41;;;;;;;17.67;13.13;;;10.70;99.90;;;;;;6177355;23;20123;-65
2024/03/17 07:19:08;;;;;;;18.92;13.02;;;10.70;99.90;;;;;;6057399;23;20037;-66
2024/03/17 07:21:55;;;;;;;16.20;12.90;;;10.80;99.90;;;;;;6122500;23;20025;-66
2024/03/17 07:24:21;;;;;;;23.85;13.55;;;10.80;99.90;;;;;;6119570;23;20122;-66
2024/03/17 07:26:50;;;;;;;15.48;11.73;;;10.80;99.90;;;;;;6123089;23;20344;-66
2024/03/17 07:29:19;;;;;;;18.27;12.43;;;10.90;99.90;;;;;;6203130;22;20011;-66
2024/03/17 07:31:44;;;;;;;19.02;11.85;;;10.90;99.90;;;;;;6278731;22;20315;-66
2024/03/17 07:34:10;;;;;;;15.32;11.95;;;11.00;99.90;;;;;;6305426;22;20010;-66
2024/03/17 07:36:36;;;;;;;18.48;12.77;;;11.10;99.90;;;;;;6305726;22;20003;-66
2024/03/17 07:39:02;;;;;;;18.48;13.20;;;11.10;99.90;;;;;;6304432;22;20007;-66
2024/03/17 07:41:28;;;;;;;14.85;11.93;;;11.20;99.90;;;;;;6305364;22;20000;-66
2024/03/17 07:43:54;;;;;;;14.55;11.90;;;11.30;99.90;;;;;;6304981;22;20010;-66
2024/03/17 07:46:19;;;;;;;14.80;11.45;;;11.40;99.90;;;;;;6304986;22;20002;-66
2024/03/17 07:48:45;;;;;;;17.63;12.65;;;11.40;99.90;;;;;;6306898;22;20064;-66
2024/03/17 07:51:14;;;;;;;17.77;11.40;;;11.50;99.90;;;;;;6308858;22;20007;-66
2024/03/17 07:53:41;;;;;;;20.17;12.13;;;11.60;99.90;;;;;;6309175;22;20421;-65
2024/03/17 07:56:09;;;;;;;16.20;11.43;;;11.60;99.90;;;;;;6306441;22;20010;-65
2024/03/17 07:58:38;;;;;;;14.70;10.82;;;11.70;99.90;;;;;;6307940;22;20022;-65
2024/03/17 08:01:06;;;;;;;34.63;11.27;;;11.80;99.90;;;;;;6302696;22;20011;-66
2024/03/17 08:03:33;;;;;;;42.10;11.95;;;11.80;99.90;;;;;;6303864;22;19999;-67
2024/03/17 08:06:00;;;;;;;12.30;9.25;;;11.90;99.90;;;;;;6303330;22;20035;-66
2024/03/17 08:08:27;;;;;;;11.57;8.30;;;12.00;99.90;;;;;;6307571;22;20326;-66
2024/03/17 08:10:53;;;;;;;13.43;7.55;;;12.10;99.90;;;;;;6308362;22;20029;-67
2024/03/17 08:13:20;;;;;;;9.30;7.07;;;12.20;99.90;;;;;;6308482;22;20052;-66
2024/03/17 08:15:47;;;;;;;10.23;6.22;;;12.20;99.90;;;;;;6306260;22;19995;-68
2024/03/17 08:18:13;;;;;;;10.43;6.75;;;12.30;99.90;;;;;;6308388;22;20015;-66
2024/03/17 08:20:40;;;;;;;9.65;6.30;;;12.40;99.90;;;;;;6307494;22;20008;-70
2024/03/17 08:23:06;;;;;;;8.80;6.05;;;12.40;99.90;;;;;;6305733;22;20005;-66
2024/03/17 08:25:34;;;;;;;11.02;6.97;;;12.50;99.90;;;;;;6306544;22;20204;-65
2024/03/17 08:28:01;;;;;;;13.00;6.43;;;12.60;99.90;;;;;;6307034;22;20048;-66
2024/03/17 08:30:27;;;;;;;10.07;6.00;;;12.60;99.90;;;;;;6309006;22;20371;-66
2024/03/17 08:32:53;;;;;;;8.63;6.07;;;12.70;99.90;;;;;;6309158;22;20078;-66
2024/03/17 08:35:19;;;;;;;8.30;6.47;;;12.80;99.90;;;;;;6308438;22;19995;-67
2024/03/17 08:37:45;;;;;;;10.18;6.38;;;12.80;99.90;;;;;;6308443;22;19999;-66
2024/03/17 08:44:40;;;;;;;9.85;6.05;;;13.00;99.90;;;;;;6154668;23;20013;-66
2024/03/17 08:50:54;;;;;;;11.25;6.07;;;13.20;99.90;;;;;;6143381;23;20016;-66
2024/03/17 09:00:36;;;;;;;10.65;5.70;;;13.50;99.90;;;;;;6124314;23;20121;-66
2024/03/17 09:06:22;;;;;;;11.30;7.00;;;13.60;99.90;;;;;;6037677;23;20063;-65
2024/03/17 09:08:48;;;;;;;11.23;7.40;;;13.70;99.90;;;;;;6037242;23;20011;-67
2024/03/17 09:11:15;;;;;;;10.95;7.13;;;13.80;99.90;;;;;;6146252;23;20376;-66
2024/03/17 09:13:41;;;;;;;11.65;7.22;;;13.80;99.90;;;;;;6292073;22;20038;-66
2024/03/17 09:16:11;;;;;;;13.13;7.53;;;13.90;99.90;;;;;;6304740;22;19999;-67
2024/03/17 09:18:37;;;;;;;13.57;7.72;;;14.00;99.90;;;;;;6277169;22;20019;-66
2024/03/17 09:21:04;;;;;;;12.43;8.88;;;14.00;99.90;;;;;;6332446;22;20010;-66
2024/03/17 09:23:31;;;;;;;13.85;8.82;;;14.10;99.90;;;;;;6339381;22;20360;-67
2024/03/17 09:26:08;;;;;;;13.18;9.32;;;14.20;99.90;;;;;;6311678;22;20370;-67
2024/03/17 09:28:35;;;;;;;15.38;9.35;;;14.30;99.90;;;;;;6338745;22;20321;-65
2024/03/17 09:31:01;;;;;;;13.55;9.57;;;14.30;99.90;;;;;;6338869;22;20329;-66
2024/03/17 09:33:29;;;;;;;14.50;9.68;;;14.40;99.90;;;;;;6336833;22;20094;-66
2024/03/17 09:36:02;;;;;;;16.10;10.00;;;14.50;99.90;;;;;;6335908;22;20337;-66
2024/03/17 09:38:29;;;;;;;16.55;9.75;;;14.50;99.90;;;;;;6337019;22;20440;-65
2024/03/17 09:40:57;;;;;;;12.75;9.70;;;14.60;99.90;;;;;;6339226;22;20281;-66
2024/03/17 09:43:24;;;;;;;15.07;10.00;;;14.60;99.90;;;;;;6339052;22;20066;-66
2024/03/17 09:45:57;;;;;;;15.88;10.88;;;14.70;99.90;;;;;;6338593;22;20007;-66
2024/03/17 09:48:23;;;;;;;;;;;14.80;99.90;;;;;;6339371;22;20316;-66
2024/03/17 09:50:54;;;;;;;15.95;11.27;;;14.80;99.90;;;;;;6338733;22;19985;-66
2024/03/17 09:53:26;;;;;;;19.70;11.38;;;14.80;99.90;;;;;;6338707;22;20333;-66
2024/03/17 09:55:56;;;;;;;15.48;11.20;;;14.90;99.90;;;;;;6339022;22;20621;-66
2024/03/17 09:58:22;;;;;;;16.20;11.65;;;15.00;99.90;;;;;;6336498;22;19999;-66
2024/03/17 10:00:48;;;;;;;16.95;11.50;;;15.00;99.90;;;;;;6335464;22;20064;-66
2024/03/17 10:03:52;;;;;;;14.05;10.95;;;15.10;99.90;;;;;;6335441;22;20025;-66
2024/03/17 10:06:22;;;;;;;19.65;13.23;;;15.10;99.90;;;;;;6338431;22;20007;-66
2024/03/17 10:08:53;;;;;;;15.70;13.32;;;15.20;99.90;;;;;;6338867;22;20002;-67
2024/03/17 10:11:21;;;;;;;15.88;11.63;;;15.20;99.90;;;;;;6338455;22;20002;-66
2024/03/17 10:14:05;;;;;;;17.10;11.65;;;15.30;99.90;;;;;;6338956;22;20003;-67
2024/03/17 10:16:33;;;;;;;22.02;11.43;;;15.40;99.90;;;;;;6339111;22;19999;-66
2024/03/17 10:19:13;;;;;;;17.17;11.80;;;15.50;99.90;;;;;;6338727;22;20097;-66
2024/03/17 10:21:49;;;;;;;16.67;12.57;;;15.50;99.90;;;;;;6338831;22;19995;-67
2024/03/17 10:47:57;;;;;;;15.85;10.10;;;16.20;99.90;;;;;;6064232;23;20011;-65
2024/03/17 10:50:23;;;;;;;16.00;11.27;;;16.30;99.90;;;;;;6122157;23;20341;-66
2024/03/17 10:52:51;;;;;;;16.33;10.95;;;16.40;99.90;;;;;;6242709;23;20001;-66
2024/03/17 10:55:27;;;;;;;14.05;11.50;;;16.50;99.90;;;;;;6294176;22;20083;-66
2024/03/17 10:57:58;;;;;;;18.83;13.65;;;16.50;99.90;;;;;;6337799;22;20505;-66
2024/03/17 11:00:25;;;;;;;20.88;13.50;;;16.70;99.90;;;;;;6338673;22;20042;-66
2024/03/17 11:02:55;;;;;;;19.63;14.40;;;16.70;99.00;;;;;;6338313;22;20329;-65
2024/03/17 11:05:29;;;;;;;20.92;14.48;;;16.80;98.10;;;;;;6334341;22;20344;-66
2024/03/17 11:07:59;;;;;;;21.40;15.07;;;16.80;98.20;;;;;;6334452;22;20606;-66
2024/03/17 11:10:28;;;;;;;20.60;14.40;;;16.90;98.40;;;;;;6336284;22;20438;-66
2024/03/17 11:12:58;;;;;;;21.42;14.57;;;16.90;98.10;;;;;;6337949;22;20494;-66
2024/03/17 11:15:26;;;;;;;22.83;14.23;;;17.00;97.80;;;;;;6337790;22;20082;-66
2024/03/17 11:18:16;;;;;;;18.02;14.98;;;17.00;98.30;;;;;;6318768;22;20029;-66
2024/03/17 11:20:55;;;;;;;19.35;13.55;;;17.10;98.70;;;;;;6290005;22;20021;-66
2024/03/17 11:23:29;;;;;;;19.00;16.02;;;17.30;99.10;;;;;;6310150;22;19999;-66
2024/03/17 11:25:55;;;;;;;22.98;17.05;;;17.40;97.60;;;;;;6310594;22;20043;-66
2024/03/17 11:28:58;;;;;;;22.67;16.13;;;17.40;96.90;;;;;;6310464;22;20003;-65
2024/03/17 11:31:43;;;;;;;20.58;16.23;;;17.40;97.00;;;;;;6216101;23;20005;-65
2024/03/17 11:34:34;;;;;;;20.13;15.88;;;17.40;97.30;;;;;;6305237;22;20090;-66
2024/03/17 11:37:03;;;;;;;26.50;17.77;;;17.50;96.60;;;;;;6311395;22;19999;-66
2024/03/17 11:39:56;;;;;;;20.77;15.23;;;17.60;96.40;;;;;;6310990;22;20008;-66
2024/03/17 11:59:39;;;;;;;25.83;17.90;;;18.10;92.40;;;;;;6007432;23;20026;-66
2024/03/17 12:02:44;;;;;;;25.00;15.75;;;18.20;93.00;;;;;;6054155;23;20330;-66
2024/03/17 12:05:11;;;;;;;17.30;13.82;;;18.20;90.90;;;;;;6069541;23;20014;-66
2024/03/17 12:07:42;;;;;;;19.83;15.48;;;18.20;91.10;;;;;;6126954;23;20356;-66
2024/03/17 12:10:13;;;;;;;21.30;16.87;;;18.20;91.60;;;;;;6234131;22;20318;-66
2024/03/17 12:12:39;;;;;;;23.73;18.67;;;18.30;92.70;;;;;;6310387;22;20070;-66
2024/03/17 12:15:17;;;;;;;23.40;18.08;;;18.40;91.70;;;;;;6309585;22;20326;-66
2024/03/17 12:17:43;;;;;;;20.40;16.42;;;18.40;92.10;;;;;;6310602;22;20120;-65
2024/03/17 12:20:20;;;;;;;24.92;16.95;;;18.50;93.00;;;;;;6310320;22;20011;-66
2024/03/17 12:22:46;;;;;;;21.15;16.88;;;18.60;92.40;;;;;;6309250;22;20011;-66
2024/03/17 12:25:19;;;;;;;20.25;16.90;;;18.60;91.40;;;;;;6305743;22;20329;-66
2024/03/17 12:27:46;;;;;;;;;;;18.60;92.00;;;;;;6307580;22;20010;-66
2024/03/17 12:30:12;;;;;;;19.92;15.32;;;18.70;91.30;;;;;;6308845;22;20225;-66
2024/03/17 12:32:38;;;;;;;22.23;16.17;;;18.70;91.10;;;;;;6310182;22;20448;-66
2024/03/17 12:35:13;;;;;;;21.75;15.57;;;18.70;90.10;;;;;;6308101;22;19999;-66
2024/03/17 12:37:40;;;;;;;23.05;16.85;;;18.70;90.90;;;;;;6308454;22;20451;-66
2024/03/17 12:40:18;;;;;;;21.63;16.77;;;18.70;90.20;;;;;;6308631;22;20423;-65
2024/03/17 12:42:49;;;;;;;23.45;18.42;;;18.70;90.80;;;;;;6308175;22;20014;-66
2024/03/17 12:45:20;;;;;;;25.80;17.77;;;18.70;89.60;;;;;;6308471;22;20046;-66
2024/03/17 12:47:48;;;;;;;22.20;17.17;;;18.70;91.30;;;;;;6308411;22;20054;-66
2024/03/17 12:50:17;;;;;;;21.05;17.50;;;18.70;90.10;;;;;;6308604;22;20082;-66
2024/03/17 12:52:55;;;;;;;21.08;16.75;;;18.60;91.00;;;;;;6308733;22;20003;-66
2024/03/17 13:01:03;;;;;;;25.52;17.88;;;18.70;90.30;;;;;;6308331;22;20060;-66
2024/03/17 13:03:33;;;;;;;22.95;17.88;;;18.70;91.80;;;;;;6307006;22;20006;-66
2024/03/17 13:06:00;;;;;;;21.95;15.68;;;18.70;90.30;;;;;;6308768;22;20003;-66
2024/03/17 13:08:26;;;;;;;21.65;16.42;;;18.70;90.30;;;;;;6309299;22;20363;-66
2024/03/17 13:10:52;;;;;;;20.00;16.25;;;18.70;87.80;;;;;;6309563;22;20309;-66
2024/03/17 13:13:17;;;;;;;19.67;15.75;;;18.60;89.00;;;;;;6309144;22;20003;-66
2024/03/17 13:15:44;;;;;;;20.10;14.18;;;18.70;87.10;;;;;;6308847;22;20007;-65
2024/03/17 13:18:24;;;;;;;20.70;15.88;;;18.60;88.00;;;;;;6308722;22;20046;-66
2024/03/17 13:29:30;;;;;;;17.85;13.60;;;18.70;86.40;;;;;;6308565;22;20013;-66
2024/03/17 13:41:51;;;;;;;17.95;14.60;;;18.60;86.20;;;;;;6095089;23;20058;-66
2024/03/17 13:44:17;;;;;;;22.20;16.58;;;18.60;86.60;;;;;;6134951;23;20407;-66
2024/03/17 13:46:45;;;;;;;24.40;14.77;;;18.60;86.40;;;;;;6212906;23;20120;-66
2024/03/17 13:49:11;;;;;;;22.95;15.85;;;18.50;86.50;;;;;;6289913;22;20334;-65
2024/03/17 13:51:37;;;;;;;20.33;13.95;;;18.50;84.10;;;;;;6308247;22;19995;-66
2024/03/17 13:54:03;;;;;;;17.98;14.57;;;18.50;85.90;;;;;;6308062;22;20007;-66
2024/03/17 13:56:29;;;;;;;21.05;13.48;;;18.50;87.60;;;;;;6307925;22;20070;-66
2024/03/17 13:58:54;;;;;;;18.73;13.52;;;18.60;87.80;;;;;;6307952;22;20386;-66
2024/03/17 14:01:21;;;;;;;21.40;15.30;;;18.60;88.60;;;;;;6308210;22;20007;-66
2024/03/17 14:03:46;;;;;;;16.80;14.57;;;18.70;87.90;;;;;;6307649;22;20329;-66
2024/03/17 14:06:12;;;;;;;20.88;14.70;;;18.70;87.90;;;;;;6307872;22;20062;-66
2024/03/17 14:08:38;;;;;;;19.95;16.45;;;18.80;88.00;;;;;;6307753;22;20077;-66
2024/03/17 14:11:04;;;;;;;19.88;15.50;;;18.80;88.30;;;;;;6308293;22;20003;-66
2024/03/17 14:13:30;;;;;;;19.05;14.60;;;18.80;84.70;;;;;;6307590;22;20007;-66
2024/03/17 14:15:57;;;;;;;20.50;14.52;;;18.90;88.40;;;;;;6307881;22;20433;-66
2024/03/17 14:18:23;;;;;;;21.75;15.00;;;18.90;87.70;;;;;;6307380;22;20472;-66
2024/03/17 14:20:50;;;;;;;17.63;14.80;;;18.90;88.70;;;;;;6307881;22;20007;-66
2024/03/17 14:23:17;;;;;;;22.00;15.40;;;18.80;87.60;;;;;;6307298;22;20000;-66
2024/03/17 14:25:43;;;;;;;22.15;15.35;;;18.80;87.10;;;;;;6307296;22;20049;-66
2024/03/17 14:28:09;;;;;;;20.75;15.23;;;18.80;86.80;;;;;;6307620;22;20066;-66
2024/03/17 14:30:36;;;;;;;21.05;15.20;;;18.70;87.20;;;;;;6307509;22;20027;-66
2024/03/17 14:33:04;;;;;;;16.90;15.10;;;18.70;87.80;;;;;;6307346;22;20070;-66
2024/03/17 14:35:32;;;;;;;23.55;15.10;;;18.70;88.40;;;;;;6307571;22;20090;-66
2024/03/17 14:37:59;;;;;;;18.70;14.07;;;18.70;89.10;;;;;;6307643;22;20074;-66
2024/03/17 14:40:28;;;;;;;22.50;13.80;;;18.80;89.00;;;;;;6307358;22;20062;-66
2024/03/17 14:42:55;;;;;;;17.98;12.43;;;18.70;87.70;;;;;;6307451;22;20244;-66
2024/03/17 14:45:23;;;;;;;14.88;11.32;;;18.70;88.70;;;;;;6307605;22;20000;-66
2024/03/17 14:47:49;;;;;;;18.25;11.75;;;18.70;88.40;;;;;;6308245;22;20004;-66
2024/03/17 14:50:16;;;;;;;15.48;10.95;;;18.70;90.00;;;;;;6308415;22;20003;-66
2024/03/17 14:52:43;;;;;;;17.42;11.25;;;18.70;89.40;;;;;;6307847;22;20333;-65
2024/03/17 14:55:32;;;;;;;15.48;10.45;;;18.70;89.40;;;;;;6308064;22;20003;-66
2024/03/17 15:15:08;;;;;;;14.27;11.75;;;18.40;88.80;;;;;;5953288;23;20081;-66
2024/03/17 15:17:52;;;;;;;16.77;11.70;;;18.40;86.50;;;;;;6008063;23;20020;-66
2024/03/17 15:20:18;;;;;;;16.02;11.85;;;18.30;88.80;;;;;;6008263;23;20362;-66
2024/03/17 15:22:49;;;;;;;14.45;11.05;;;18.30;87.90;;;;;;6041845;23;20007;-66
2024/03/17 15:25:16;;;;;;;13.10;10.75;;;18.20;87.20;;;;;;6141759;22;20012;-66
2024/03/17 15:27:45;;;;;;;15.40;11.35;;;18.10;87.90;;;;;;6276063;22;20023;-66
2024/03/17 15:30:18;;;;;;;16.13;10.88;;;18.10;88.90;;;;;;6276194;22;20011;-67
2024/03/17 15:32:48;;;;;;;16.63;11.07;;;18.10;89.00;;;;;;6276480;22;19999;-66
2024/03/17 15:35:14;;;;;;;16.70;11.93;;;18.10;90.00;;;;;;6276216;22;20015;-66
2024/03/17 15:37:41;;;;;;;19.23;13.95;;;18.10;90.70;;;;;;6248755;22;20329;-66